Latest Coastal Weather Observations for Smithton

IDV60701

Issued at 1:45 am EDT Saturday 29 November 2014 (issued every 10 minutes, with the page automatically refreshed every 10 minutes)

About coastal observations | Map of coastal stations | Coastal observations for VIC | Marine services | Other Formats
Station Details ID: 091292 Name: SMITHTON AERODROME Lat: -40.83 Lon: 145.08 Height: 7.5 m
Data from the previous 72 hours. | See also: Recent months at Smithton
Date/Time
EDT
Temp

°C
Wind Pressure Rain
since 9am
mm
Weather Cloud Vis
km
Sea
Height
m
Swell
Dir
 
Speed
knots
Gust
knots
hPa Trend Height
m
Period
s
Dir
29/01:30am 8.4 S 6 7 1018.9 - 0.0 - - - - - - -
29/01:00am 8.9 SSW 6 7 1019.2 - 0.0 - - - - - - -
29/12:30am 9.4 SSW 5 6 1019.3 - 0.0 - - - - - - -
29/12:00am 9.2 SSW 7 8 1019.2 - 0.0 - - - - - - -
 
Date/Time
EDT
Temp

°C
Wind Pressure Rain
since 9am
mm
Weather Cloud Vis
km
Sea
Height
m
Swell
Dir
 
Speed
knots
Gust
knots
hPa Trend Height
m
Period
s
Dir
28/11:30pm 9.8 SSW 8 10 1019.3 - 0.0 - - - - - - -
28/11:00pm 9.2 SSW 7 7 1019.5 - 0.0 - - - - - - -
28/10:30pm 10.0 SSW 8 9 1019.6 - 0.0 - - - - - - -
28/10:00pm 10.5 SSW 7 9 1019.7 - 0.0 - - - - - - -
28/09:30pm 10.6 SSW 9 11 1019.5 - 0.0 - - - - - - -
28/09:00pm 11.6 SSW 9 11 1019.4 - 0.0 - - - - - - -
28/08:30pm 13.1 SSW 9 11 1019.5 - 0.0 - - - - - - -
28/08:00pm 14.2 SW 11 13 1019.6 - 0.0 - - - - - - -
28/07:30pm 15.0 SW 12 15 1019.6 - 0.0 - - - - - - -
28/07:00pm 16.5 SW 14 18 1019.6 - 0.0 - - - - - - -
28/06:30pm 17.8 SW 15 18 1019.4 - 0.0 - - - - - - -
28/06:00pm 18.5 WSW 14 18 1019.4 - 0.0 - - - - - - -
28/05:30pm 18.7 SW 14 18 1019.5 - 0.0 - - - - - - -
28/05:00pm 19.1 SW 14 17 1019.5 - 0.0 - - - - - - -
28/04:30pm 19.3 SW 14 17 1019.4 - 0.0 - - - - - - -
28/04:00pm 20.0 WSW 13 17 1019.5 - 0.0 - - - - - - -
28/03:30pm 20.6 SW 12 16 1019.6 - 0.0 - - - - - - -
28/03:00pm 20.9 SW 9 14 1019.8 - 0.0 - - - - - - -
28/02:30pm 19.9 N 8 12 1020.0 - 0.0 - - - - - - -
28/02:00pm 19.1 NNE 11 15 1020.4 - 0.0 - - - - - - -
28/01:30pm 19.2 W 6 11 1020.9 - 0.0 - - - - - - -
28/01:00pm 18.7 SW 5 10 1021.5 - 0.0 - - - - - - -
28/12:30pm 18.4 S 7 10 1021.8 - 0.0 - - - - - - -
28/12:00pm 17.9 SSW 4 9 1022.0 - 0.0 - - - - - - -
28/11:30am 16.9 SSW 7 11 1022.2 - 0.0 - - - - - - -
28/11:00am 16.2 SSW 6 9 1022.6 - 0.0 - - - - - - -
28/10:30am 16.0 S 9 13 1022.7 - 0.0 - - - - - - -
28/10:00am 15.9 S 10 13 1022.9 - 0.0 - - - - - - -
28/09:30am 15.0 S 10 14 1023.2 - 0.0 - - - - - - -
28/09:00am 13.8 SSW 12 15 1023.6 - 0.0 - - - - - - -
28/08:30am 12.9 S 11 13 1023.4 - 0.0 - - - - - - -
28/08:00am 11.5 S 11 14 1023.4 - 0.0 - - - - - - -
28/07:30am 10.3 S 9 12 1023.3 - 0.0 - - - - - - -
28/07:00am 8.8 SSW 9 11 1023.2 - 0.0 - - - - - - -
28/06:30am 7.4 SSW 9 11 1023.1 - 0.0 - - - - - - -
28/06:00am 6.7 SSW 9 11 1023.0 - 0.0 - - - - - - -
28/05:30am 6.5 SSW 9 11 1022.9 - 0.0 - - - - - - -
28/05:00am 7.0 SSW 10 12 1022.8 - 0.0 - - - - - - -
28/04:30am 5.9 SSW 9 11 1022.6 - 0.0 - - - - - - -
28/04:00am 5.8 SSW 8 9 1022.6 - 0.0 - - - - - - -
28/03:30am 6.5 SSW 8 9 1022.6 - 0.0 - - - - - - -
28/03:00am 7.5 SSW 12 14 1022.6 - 0.0 - - - - - - -
28/02:30am 7.7 SSW 11 14 1022.8 - 0.0 - - - - - - -
28/02:00am 7.6 S 11 14 1022.9 - 0.0 - - - - - - -
28/01:30am 7.8 S 10 12 1023.1 - 0.0 - - - - - - -
28/01:00am 8.4 SSW 12 15 1023.3 - 0.0 - - - - - - -
28/12:30am 8.6 S 13 17 1023.4 - 0.0 - - - - - - -
28/12:00am 8.9 SSW 15 18 1023.2 - 0.0 - - - - - - -
 
Date/Time
EDT
Temp

°C
Wind Pressure Rain
since 9am
mm
Weather Cloud Vis
km
Sea
Height
m
Swell
Dir
 
Speed
knots
Gust
knots
hPa Trend Height
m
Period
s
Dir
27/11:30pm 8.9 SSW 15 19 1023.3 - 0.0 - - - - - - -
27/11:00pm 9.0 SSW 15 18 1023.3 - 0.0 - - - - - - -
27/10:30pm 9.2 SSW 14 18 1023.6 - 0.0 - - - - - - -
27/10:00pm 9.2 SSW 14 16 1023.5 - 0.0 - - - - - - -
27/09:30pm 10.0 SSW 11 14 1023.6 - 0.0 - - - - - - -
27/09:00pm 11.0 SW 11 13 1023.5 - 0.0 - - - - - - -
27/08:30pm 11.8 SW 11 14 1023.5 - 0.0 - - - - - - -
27/08:00pm 13.8 SW 10 15 1023.5 - 0.0 - - - - - - -
27/07:30pm 15.1 SW 15 19 1023.1 - 0.0 - - - - - - -
27/07:00pm 16.2 SW 16 20 1022.9 - 0.0 - - - - - - -
27/06:30pm 16.8 SW 16 19 1022.8 - 0.0 - - - - - - -
27/06:00pm 17.7 SW 16 20 1022.8 - 0.0 - - - - - - -
27/05:30pm 18.0 SW 16 20 1022.8 - 0.0 - - - - - - -
27/05:00pm 18.1 SW 16 20 1023.1 - 0.0 - - - - - - -
27/04:30pm 17.9 SW 17 21 1023.3 - 0.0 - - - - - - -
27/04:00pm 18.2 SSW 17 22 1023.3 - 0.0 - - - - - - -
27/03:30pm 18.8 SSW 17 23 1023.6 - 0.0 - - - - - - -
27/03:00pm 19.1 SW 16 23 1023.9 - 0.0 - - - - - - -
27/02:30pm 18.5 SSW 17 23 1024.1 - 0.0 - - - - - - -
27/02:00pm 19.2 SSW 17 22 1024.2 - 0.0 - - - - - - -
27/01:30pm 18.5 SSW 16 21 1024.4 - 0.0 - - - - - - -
27/01:00pm 18.1 SW 18 24 1024.6 - 0.0 - - - - - - -
27/12:30pm 17.6 SW 16 21 1024.5 - 0.0 - - - - - - -
27/12:00pm 17.0 SW 18 23 1024.7 - 0.0 - - - - - - -
27/11:30am 17.7 SW 17 23 1024.7 - 0.0 - - - - - - -
27/11:00am 16.0 SSW 16 21 1024.8 - 0.0 - - - - - - -
27/10:30am 15.8 SSW 16 21 1025.1 - 0.0 - - - - - - -
27/10:00am 14.7 SSW 16 22 1025.3 - 0.0 - - - - - - -
27/09:30am 14.2 S 16 22 1025.6 - 0.0 - - - - - - -
27/09:00am 13.7 SSW 15 19 1025.8 - 0.0 - - - - - - -
27/08:30am 12.7 SSW 15 21 1025.7 - 0.0 - - - - - - -
27/08:00am 11.8 SSW 14 19 1025.6 - 0.0 - - - - - - -
27/07:30am 10.6 SSW 11 15 1025.3 - 0.0 - - - - - - -
27/07:00am 9.1 SSW 10 12 1025.0 - 0.0 - - - - - - -
27/06:30am 6.7 SSW 9 11 1024.7 - 0.0 - - - - - - -
27/06:00am 5.3 SSW 9 10 1024.3 - 0.0 - - - - - - -
27/05:30am 5.2 SSW 9 11 1024.1 - 0.0 - - - - - - -
27/05:00am 4.9 SSW 8 9 1024.1 - 0.0 - - - - - - -
27/04:30am 5.2 SSW 8 8 1024.0 - 0.0 - - - - - - -
27/04:00am 5.5 SSW 6 7 1023.8 - 0.0 - - - - - - -
27/03:30am 6.0 SSW 6 6 1023.6 - 0.0 - - - - - - -
27/03:00am 5.9 SW 7 8 1023.5 - 0.0 - - - - - - -
27/02:30am 6.9 SW 8 9 1023.4 - 0.0 - - - - - - -
27/02:00am 7.5 SW 10 12 1023.3 - 0.0 - - - - - - -
27/01:30am 7.6 SW 9 11 1023.3 - 0.0 - - - - - - -
27/01:00am 7.4 SW 8 10 1023.3 - 0.0 - - - - - - -
27/12:30am 7.8 SW 8 10 1023.4 - 0.0 - - - - - - -
27/12:00am 8.4 SW 10 12 1023.5 - 0.0 - - - - - - -
 
Date/Time
EDT
Temp

°C
Wind Pressure Rain
since 9am
mm
Weather Cloud Vis
km
Sea
Height
m
Swell
Dir
 
Speed
knots
Gust
knots
hPa Trend Height
m
Period
s
Dir
26/11:30pm 8.7 SSW 11 14 1023.4 - 0.0 - - - - - - -
26/11:00pm 9.1 SW 11 13 1023.4 - 0.0 - - - - - - -
26/10:30pm 8.7 SW 9 11 1023.4 - 0.0 - - - - - - -
26/10:00pm 9.2 SW 9 11 1023.3 - 0.0 - - - - - - -
26/09:30pm 9.6 SSW 12 15 1023.0 - 0.0 - - - - - - -
26/09:00pm 10.2 SSW 12 15 1022.6 - 0.0 - - - - - - -
26/08:30pm 11.0 SSW 13 17 1022.3 - 0.0 - - - - - - -
26/08:00pm 12.0 SSW 16 21 1022.2 - 0.0 - - - - - - -
26/07:30pm 12.3 SSW 14 20 1021.8 - 0.0 - - - - - - -
26/07:00pm 12.2 SW 16 24 1021.3 - 0.0 - - - - - - -
26/06:30pm 14.0 SSW 17 22 1020.8 - 0.0 - - - - - - -
26/06:00pm 13.4 SW 17 25 1020.5 - 0.0 - - - - - - -
26/05:30pm 14.2 SSW 19 28 1020.3 - 0.0 - - - - - - -
26/05:00pm 16.4 SW 16 24 1020.2 - 0.0 - - - - - - -
26/04:30pm 15.1 SW 20 27 1020.1 - 0.0 - - - - - - -
26/04:00pm 15.1 SW 20 27 1020.0 - 0.0 - - - - - - -
26/03:30pm 13.9 SW 20 27 1019.9 - 0.0 - - - - - - -
26/03:00pm 15.2 SW 19 25 1019.7 - 0.0 - - - - - - -
26/02:30pm 15.7 SW 18 26 1019.4 - 0.0 - - - - - - -
26/02:00pm 15.9 SW 20 27 1019.4 - 0.0 - - - - - - -
26/01:30pm 16.3 SW 19 24 1019.3 - 0.0 - - - - - - -
26/01:00pm 16.8 SW 17 22 1019.2 - 0.0 - - - - - - -
26/12:30pm 15.7 SW 20 25 1019.1 - 0.0 - - - - - - -
26/12:24pm 15.3 SW 19 29 1019.1 - 0.0 - - - - - - -
26/12:00pm 15.6 SW 18 25 1018.9 - 0.0 - - - - - - -
26/11:30am 15.5 WSW 19 27 1018.6 - 0.0 - - - - - - -
26/11:00am 15.1 SW 20 26 1018.6 - 0.0 - - - - - - -
26/10:30am 14.9 WSW 19 27 1018.4 - 0.0 - - - - - - -
26/10:00am 13.7 SW 17 25 1018.3 - 0.0 - - - - - - -
26/09:30am 13.9 SSW 20 27 1018.2 - 0.0 - - - - - - -
26/09:00am 13.9 SW 17 23 1017.7 - 1.0 - - - - - - -
26/08:30am 13.4 WSW 17 23 1017.5 - 1.0 - - - - - - -
26/08:00am 13.1 WSW 13 18 1017.2 - 1.0 - - - - - - -
26/07:30am 12.1 SW 11 15 1016.9 - 1.0 - - - - - - -
26/07:00am 11.7 SW 12 16 1016.7 - 1.0 - - - - - - -
26/06:30am 11.2 WSW 10 14 1016.3 - 1.0 - - - - - - -
26/06:00am 10.8 SW 10 13 1016.0 - 1.0 - - - - - - -
26/05:30am 11.2 SW 13 18 1015.8 - 1.0 - - - - - - -
26/05:00am 11.9 WSW 19 25 1015.3 - 1.0 - - - - - - -
26/04:59am 11.9 WSW 20 25 1015.4 - 1.0 - - - - - - -
26/04:30am 12.3 W 12 17 1015.0 - 0.6 - - - - - - -
26/04:00am 12.3 W 12 18 1015.1 - 0.6 - - - - - - -
26/03:30am 12.3 W 16 21 1015.0 - 0.6 - - - - - - -
26/03:00am 12.1 W 15 20 1015.1 - 0.6 - - - - - - -
26/02:30am 12.0 W 15 22 1015.4 - 0.4 - - - - - - -
26/02:00am 12.2 W 14 20 1015.7 - 0.4 - - - - - - -

Other Formats:

Comma delimited format used in spreadsheet applications
http://www.bom.gov.au/fwo/IDV60701/IDV60701.94953.axf

JavaScript Object Notation format (JSON) in row-major order
http://www.bom.gov.au/fwo/IDV60701/IDV60701.94953.json